createdAt,value
2019-03-15T00:00:33.468Z,5.58
2019-03-15T00:03:02.399Z,5.57
2019-03-15T00:05:31.792Z,5.52
2019-03-15T00:08:00.802Z,5.58
2019-03-15T00:10:29.967Z,5.50
2019-03-15T00:12:59.124Z,5.55
2019-03-15T00:15:28.129Z,5.52
2019-03-15T00:17:57.498Z,5.57
2019-03-15T00:20:26.804Z,5.58
2019-03-15T00:22:55.805Z,5.55
2019-03-15T00:25:24.860Z,5.58
2019-03-15T00:27:54.197Z,5.55
2019-03-15T00:30:23.456Z,5.62
2019-03-15T00:32:52.427Z,5.57
2019-03-15T00:35:21.371Z,5.57
2019-03-15T00:37:50.341Z,5.51
2019-03-15T00:40:19.843Z,5.48
2019-03-15T00:42:48.889Z,5.48
2019-03-15T00:45:17.899Z,5.52
2019-03-15T00:47:46.891Z,5.49
2019-03-15T00:50:15.895Z,5.49
2019-03-15T00:52:44.900Z,5.49
2019-03-15T00:55:13.947Z,5.49
2019-03-15T00:57:43.000Z,5.54
2019-03-15T01:00:13.547Z,5.56
2019-03-15T01:02:44.189Z,5.59
2019-03-15T01:05:13.833Z,5.59
2019-03-15T01:07:42.842Z,5.65
2019-03-15T01:10:12.336Z,5.65
2019-03-15T01:12:41.384Z,5.67
2019-03-15T01:15:10.404Z,5.71
2019-03-15T01:17:39.340Z,5.73
2019-03-15T01:20:08.604Z,5.75
2019-03-15T01:22:37.612Z,5.84
2019-03-15T01:25:06.670Z,5.85
2019-03-15T01:27:35.779Z,5.86
2019-03-15T01:30:05.257Z,5.83
2019-03-15T01:32:34.312Z,5.87
2019-03-15T01:35:03.443Z,5.96
2019-03-15T01:37:32.394Z,5.95
2019-03-15T01:40:01.483Z,5.90
2019-03-15T01:42:30.494Z,5.91
2019-03-15T01:44:59.593Z,5.93
2019-03-15T01:47:28.601Z,5.89
2019-03-15T01:49:58.614Z,5.98
2019-03-15T01:52:27.769Z,5.95
2019-03-15T01:54:56.962Z,6.01
2019-03-15T01:57:25.997Z,6.13
2019-03-15T01:59:55.050Z,6.25
2019-03-15T02:02:24.056Z,6.24
2019-03-15T02:04:53.027Z,6.24
2019-03-15T02:07:21.971Z,6.31
2019-03-15T02:09:51.227Z,6.29
2019-03-15T02:12:20.268Z,6.37
2019-03-15T02:14:49.319Z,6.42
2019-03-15T02:17:18.621Z,6.42
2019-03-15T02:19:47.677Z,6.46
2019-03-15T02:22:16.685Z,6.43
2019-03-15T02:24:45.692Z,6.40
2019-03-15T02:27:15.067Z,6.46
2019-03-15T02:29:44.151Z,6.39
2019-03-15T02:32:13.173Z,6.38
2019-03-15T02:34:42.150Z,6.40
2019-03-15T02:37:11.538Z,6.31
2019-03-15T02:39:40.932Z,6.33
2019-03-15T02:42:09.934Z,6.31
2019-03-15T02:44:39.356Z,6.40
2019-03-15T02:47:08.564Z,6.40
2019-03-15T02:49:37.627Z,6.44
2019-03-15T02:52:06.628Z,6.43
2019-03-15T02:54:35.638Z,6.46
2019-03-15T02:57:04.685Z,6.45
2019-03-15T02:59:33.745Z,6.33
2019-03-15T03:02:02.792Z,6.37
2019-03-15T03:04:31.841Z,6.35
2019-03-15T03:07:01.197Z,6.30
2019-03-15T03:09:30.207Z,6.33
2019-03-15T03:11:59.213Z,6.36
2019-03-15T03:14:28.256Z,6.34
2019-03-15T03:16:57.285Z,6.37
2019-03-15T03:19:26.396Z,6.37
2019-03-15T03:21:55.391Z,6.40
2019-03-15T03:24:24.654Z,6.39
2019-03-15T03:26:53.849Z,6.33
2019-03-15T03:29:22.923Z,6.30
2019-03-15T03:31:51.934Z,6.26
2019-03-15T03:34:21.241Z,6.23
2019-03-15T03:36:50.303Z,6.20
2019-03-15T03:39:19.321Z,6.06
2019-03-15T03:41:48.274Z,6.02
2019-03-15T03:44:17.404Z,5.97
2019-03-15T03:46:46.420Z,5.86
2019-03-15T03:49:15.462Z,5.86
2019-03-15T03:51:44.509Z,5.81
2019-03-15T03:54:13.557Z,5.74
2019-03-15T03:56:43.425Z,5.74
2019-03-15T03:59:12.677Z,5.73
2019-03-15T04:01:41.747Z,5.75
2019-03-15T04:04:10.880Z,5.81
2019-03-15T04:06:39.937Z,5.84
2019-03-15T04:09:09.457Z,5.87
2019-03-15T04:11:38.550Z,5.93
2019-03-15T04:14:07.590Z,5.94
2019-03-15T04:16:36.601Z,5.88
2019-03-15T04:19:05.707Z,5.92
2019-03-15T04:21:34.755Z,6.00
2019-03-15T04:24:03.805Z,6.01
2019-03-15T04:26:32.888Z,6.06
2019-03-15T04:29:01.881Z,6.12
2019-03-15T04:31:30.903Z,6.12
2019-03-15T04:34:00.281Z,6.16
2019-03-15T04:36:29.270Z,6.23
2019-03-15T04:38:58.274Z,6.21
2019-03-15T04:41:27.368Z,6.29
2019-03-15T04:43:56.392Z,6.29
2019-03-15T04:46:25.442Z,6.30
2019-03-15T04:48:54.475Z,6.30
2019-03-15T04:51:23.447Z,6.35
2019-03-15T04:53:52.692Z,6.37
2019-03-15T04:56:21.718Z,6.46
2019-03-15T04:58:50.745Z,6.43
2019-03-15T05:01:19.758Z,6.30
2019-03-15T05:03:48.821Z,6.30
2019-03-15T05:06:17.828Z,6.42
2019-03-15T05:08:46.886Z,6.49
2019-03-15T05:11:15.945Z,6.46
2019-03-15T05:13:44.921Z,6.43
2019-03-15T05:16:14.226Z,6.40
2019-03-15T05:18:43.277Z,6.40
2019-03-15T05:21:12.693Z,6.42
2019-03-15T05:23:41.736Z,6.42
2019-03-15T05:26:10.790Z,6.46
2019-03-15T05:28:39.791Z,6.48
2019-03-15T05:31:08.833Z,6.48
2019-03-15T05:33:37.884Z,6.48
2019-03-15T05:36:06.897Z,6.50
2019-03-15T05:38:35.913Z,6.48
2019-03-15T05:41:05.075Z,6.53
2019-03-15T05:43:34.085Z,6.60
2019-03-15T05:46:03.143Z,6.67
2019-03-15T05:48:32.197Z,6.72
2019-03-15T05:51:01.133Z,6.68
2019-03-15T05:53:30.181Z,6.72
2019-03-15T05:55:59.114Z,6.78
2019-03-15T05:58:28.049Z,6.78
2019-03-15T06:00:57.099Z,6.75
2019-03-15T06:03:26.140Z,6.73
2019-03-15T06:05:55.113Z,6.74
2019-03-15T06:08:27.432Z,6.77
2019-03-15T06:10:55.045Z,6.95
2019-03-15T06:13:24.043Z,7.02
2019-03-15T06:15:53.055Z,7.07
2019-03-15T06:18:22.094Z,7.10
2019-03-15T06:20:51.091Z,7.44
2019-03-15T06:23:20.084Z,7.74
2019-03-15T06:25:49.314Z,7.60
2019-03-15T06:28:18.325Z,7.68
2019-03-15T06:30:47.392Z,7.68
2019-03-15T06:33:16.327Z,7.88
2019-03-15T06:35:45.385Z,7.99
2019-03-15T06:38:14.359Z,8.09
2019-03-15T06:40:43.328Z,8.08
2019-03-15T06:43:13.475Z,8.04
2019-03-15T06:45:42.983Z,8.01
2019-03-15T06:48:12.339Z,8.04
2019-03-15T06:50:41.398Z,7.95
2019-03-15T06:53:10.361Z,7.87
2019-03-15T06:55:39.609Z,7.96
2019-03-15T06:58:08.580Z,8.03
2019-03-15T07:00:37.593Z,8.02
2019-03-15T07:03:06.646Z,7.84
2019-03-15T07:05:35.687Z,7.76
2019-03-15T07:08:04.748Z,7.79
2019-03-15T07:10:33.764Z,7.85
2019-03-15T07:13:02.773Z,7.89
2019-03-15T07:15:31.827Z,7.84
2019-03-15T07:18:00.829Z,7.73
2019-03-15T07:20:29.928Z,7.72
2019-03-15T07:22:58.930Z,7.77
2019-03-15T07:25:27.946Z,7.79
2019-03-15T07:27:56.912Z,7.78
2019-03-15T07:30:25.959Z,7.78
2019-03-15T07:32:54.969Z,7.83
2019-03-15T07:35:24.019Z,7.88
2019-03-15T07:37:53.005Z,7.94
2019-03-15T07:40:22.012Z,8.05
2019-03-15T07:42:51.026Z,8.09
2019-03-15T07:45:20.077Z,8.17
2019-03-15T07:47:49.084Z,8.11
2019-03-15T07:50:18.128Z,8.19
2019-03-15T07:52:47.137Z,8.25
2019-03-15T07:55:16.185Z,8.25
2019-03-15T07:57:45.203Z,8.29
2019-03-15T08:00:14.581Z,8.36
2019-03-15T08:02:43.631Z,8.52
2019-03-15T08:05:12.699Z,8.55
2019-03-15T08:07:45.158Z,8.54
2019-03-15T08:10:12.931Z,8.47
2019-03-15T08:12:42.006Z,8.57
2019-03-15T08:15:11.096Z,8.66
2019-03-15T08:17:40.146Z,8.63
2019-03-15T08:20:09.930Z,8.69
2019-03-15T08:22:38.974Z,8.70
2019-03-15T08:25:09.236Z,8.75
2019-03-15T08:27:38.297Z,8.87
2019-03-15T08:30:09.621Z,8.94
2019-03-15T08:32:38.679Z,8.94
2019-03-15T08:35:08.590Z,8.88
2019-03-15T08:37:37.600Z,9.10
2019-03-15T08:40:07.740Z,9.12
2019-03-15T08:42:36.834Z,9.12
2019-03-15T08:45:07.736Z,9.23
2019-03-15T08:47:36.798Z,9.35
2019-03-15T08:50:06.394Z,9.42
2019-03-15T08:52:35.404Z,9.45
2019-03-15T08:55:05.889Z,9.34
2019-03-15T09:00:15.540Z,9.62
2019-03-15T09:02:45.481Z,9.58
2019-03-15T09:05:14.489Z,9.58
2019-03-15T09:07:43.541Z,9.51
2019-03-15T09:10:22.852Z,9.65
2019-03-15T09:12:43.615Z,9.72
2019-03-15T09:15:12.849Z,9.63
2019-03-15T09:17:41.847Z,9.83
2019-03-15T09:20:10.998Z,9.72
2019-03-15T09:22:40.015Z,9.78
2019-03-15T09:25:19.348Z,9.90
2019-03-15T09:27:40.009Z,9.77
2019-03-15T09:30:22.576Z,9.63
2019-03-15T09:32:40.488Z,9.38
2019-03-15T09:35:09.601Z,9.06
2019-03-15T09:37:38.649Z,9.08
2019-03-15T09:40:08.465Z,9.22
2019-03-15T09:42:37.473Z,9.37
2019-03-15T09:45:06.975Z,9.35
2019-03-15T09:47:35.990Z,9.37
2019-03-15T09:50:05.525Z,9.37
2019-03-15T09:52:35.639Z,9.37
2019-03-15T09:55:05.088Z,9.23
2019-03-15T09:57:34.089Z,9.24
2019-03-15T10:00:03.068Z,9.09
2019-03-15T10:02:32.085Z,9.04
2019-03-15T10:05:10.792Z,9.04
2019-03-15T10:07:38.437Z,9.01
2019-03-15T10:10:13.020Z,8.90
2019-03-15T10:12:33.954Z,8.98
2019-03-15T10:15:02.966Z,8.95
2019-03-15T10:17:32.014Z,9.04
2019-03-15T10:20:01.050Z,9.08
2019-03-15T10:22:30.097Z,8.96
2019-03-15T10:24:59.113Z,9.02
2019-03-15T10:27:28.475Z,8.95
2019-03-15T10:29:57.333Z,8.89
2019-03-15T10:32:26.394Z,8.74
2019-03-15T10:34:55.518Z,8.69
2019-03-15T10:37:24.496Z,8.66
2019-03-15T10:39:53.515Z,8.53
2019-03-15T10:42:22.569Z,8.45
2019-03-15T10:44:51.984Z,8.60
2019-03-15T10:47:20.897Z,8.69
2019-03-15T10:49:50.251Z,8.89
2019-03-15T10:52:19.297Z,8.84
2019-03-15T10:54:48.349Z,8.75
2019-03-15T10:57:17.277Z,8.85
2019-03-15T10:59:46.336Z,8.90
2019-03-15T11:02:15.349Z,8.76
2019-03-15T11:04:44.358Z,8.78
2019-03-15T11:07:13.445Z,8.79
2019-03-15T11:09:42.457Z,8.87
2019-03-15T11:12:11.500Z,8.88
2019-03-15T11:14:40.839Z,8.90
2019-03-15T11:17:09.888Z,8.90
2019-03-15T11:19:38.874Z,8.83
2019-03-15T11:22:07.872Z,8.65
2019-03-15T11:24:36.930Z,8.63
2019-03-15T11:27:06.046Z,8.47
2019-03-15T11:29:35.054Z,8.50
2019-03-15T11:32:04.073Z,8.52
2019-03-15T11:34:33.092Z,8.62
2019-03-15T11:37:03.506Z,8.67
2019-03-15T11:39:32.749Z,8.57
2019-03-15T11:42:01.722Z,8.66
2019-03-15T11:44:30.780Z,8.71
2019-03-15T11:46:59.793Z,8.58
2019-03-15T11:49:28.815Z,8.48
2019-03-15T11:52:03.310Z,8.44
2019-03-15T11:54:32.318Z,8.42
2019-03-15T11:57:01.259Z,8.42
2019-03-15T11:59:30.297Z,8.26
2019-03-15T12:02:04.155Z,8.29
2019-03-15T12:04:30.098Z,8.27
2019-03-15T12:06:59.106Z,8.21
2019-03-15T12:09:28.150Z,8.27
2019-03-15T12:11:57.055Z,8.06
2019-03-15T12:14:25.907Z,8.13
2019-03-15T12:16:54.921Z,8.04
2019-03-15T12:19:24.001Z,8.09
2019-03-15T12:22:05.380Z,8.15
2019-03-15T12:24:23.739Z,8.17
2019-03-15T12:26:52.845Z,8.30
2019-03-15T12:29:21.821Z,8.31
2019-03-15T12:31:50.830Z,8.40
2019-03-15T12:34:19.874Z,8.40
2019-03-15T12:36:48.878Z,8.42
2019-03-15T12:39:18.268Z,8.42
2019-03-15T12:41:47.317Z,8.50
2019-03-15T12:44:16.329Z,8.55
2019-03-15T12:46:45.380Z,8.62
2019-03-15T12:49:14.313Z,8.67
2019-03-15T12:51:43.321Z,8.74
2019-03-15T12:54:12.369Z,8.84
2019-03-15T12:56:53.182Z,9.07
2019-03-15T12:59:12.376Z,9.09
2019-03-15T13:01:41.425Z,9.28
2019-03-15T13:04:10.437Z,9.45
2019-03-15T13:06:39.519Z,9.58
2019-03-15T13:09:08.533Z,9.74
2019-03-15T13:11:37.583Z,9.85
2019-03-15T13:14:06.609Z,9.91
2019-03-15T13:16:35.615Z,9.80
2019-03-15T13:19:04.669Z,9.84
2019-03-15T13:21:33.678Z,9.87
2019-03-15T13:24:02.750Z,9.82
2019-03-15T13:26:31.683Z,9.87
2019-03-15T13:29:00.641Z,9.83
2019-03-15T13:31:29.619Z,9.82
2019-03-15T13:33:58.626Z,9.77
2019-03-15T13:36:29.043Z,9.87
2019-03-15T13:38:58.103Z,9.73
2019-03-15T13:41:27.152Z,9.70
2019-03-15T13:43:56.165Z,9.66
2019-03-15T13:46:25.209Z,9.57
2019-03-15T13:48:54.156Z,9.57
2019-03-15T13:51:23.169Z,9.49
2019-03-15T13:53:53.124Z,9.45
2019-03-15T13:56:22.182Z,9.58
2019-03-15T13:58:57.273Z,9.51
2019-03-15T14:01:21.854Z,9.55
2019-03-15T14:03:50.921Z,9.82
2019-03-15T14:06:19.931Z,9.90
2019-03-15T14:08:48.942Z,9.96
2019-03-15T14:11:17.985Z,9.87
2019-03-15T14:13:46.995Z,9.72
2019-03-15T14:16:16.065Z,9.79
2019-03-15T14:18:45.109Z,9.75
2019-03-15T14:21:14.169Z,9.68
2019-03-15T14:23:43.628Z,9.72
2019-03-15T14:26:12.950Z,9.65
2019-03-15T14:28:41.975Z,9.68
2019-03-15T14:31:10.937Z,9.72
2019-03-15T14:33:39.921Z,9.79
2019-03-15T14:36:08.941Z,9.69
2019-03-15T14:38:38.041Z,9.79
2019-03-15T14:41:07.660Z,9.83
2019-03-15T14:43:37.209Z,9.70
2019-03-15T14:46:06.292Z,9.51
2019-03-15T14:48:35.316Z,9.48
2019-03-15T14:51:04.369Z,9.63
2019-03-15T14:53:33.688Z,9.60
2019-03-15T14:56:02.742Z,9.48
2019-03-15T14:58:31.681Z,9.42
2019-03-15T15:01:00.731Z,9.44
2019-03-15T15:03:29.779Z,9.27
2019-03-15T15:05:58.806Z,9.42
2019-03-15T15:08:27.790Z,9.32
2019-03-15T15:10:57.056Z,9.22
2019-03-15T15:13:26.108Z,9.24
2019-03-15T15:15:55.114Z,9.06
2019-03-15T15:18:24.100Z,9.10
2019-03-15T15:20:53.114Z,9.01
2019-03-15T15:23:22.401Z,8.99
2019-03-15T15:25:51.789Z,9.09
2019-03-15T15:28:20.774Z,9.10
2019-03-15T15:30:49.836Z,9.22
2019-03-15T15:33:18.788Z,9.16
2019-03-15T15:35:47.821Z,9.22
2019-03-15T15:38:16.882Z,9.28
2019-03-15T15:40:45.905Z,9.26
2019-03-15T15:43:14.966Z,9.15
2019-03-15T15:45:44.030Z,9.12
2019-03-15T15:48:13.033Z,9.05
2019-03-15T15:50:42.092Z,9.13
2019-03-15T15:53:11.423Z,9.18
2019-03-15T15:55:40.352Z,9.06
2019-03-15T15:58:17.765Z,8.96
2019-03-15T16:00:40.510Z,8.97
2019-03-15T16:03:09.643Z,8.99
2019-03-15T16:05:38.692Z,8.94
2019-03-15T16:08:07.782Z,8.88
2019-03-15T16:10:36.793Z,8.81
2019-03-15T16:13:16.551Z,8.69
2019-03-15T16:15:36.600Z,8.69
2019-03-15T16:18:05.668Z,8.69
2019-03-15T16:20:34.684Z,8.60
2019-03-15T16:23:03.771Z,8.61
2019-03-15T16:25:33.103Z,8.59
2019-03-15T16:28:02.040Z,8.51
2019-03-15T16:30:31.095Z,8.45
2019-03-15T16:33:02.141Z,8.38
2019-03-15T16:35:31.198Z,8.33
2019-03-15T16:38:00.199Z,8.25
2019-03-15T16:40:29.249Z,8.25
2019-03-15T16:42:58.239Z,8.25
2019-03-15T16:45:27.298Z,8.19
2019-03-15T16:47:56.345Z,8.20
2019-03-15T16:50:25.439Z,8.09
2019-03-15T16:52:54.759Z,8.04
2019-03-15T16:55:23.778Z,8.08
2019-03-15T16:57:52.844Z,8.07
2019-03-15T17:00:21.849Z,7.97
2019-03-15T17:02:50.937Z,7.93
2019-03-15T17:05:19.977Z,7.95
2019-03-15T17:07:48.986Z,7.93
2019-03-15T17:10:18.052Z,7.89
2019-03-15T17:12:50.597Z,7.91
2019-03-15T17:15:19.684Z,7.83
2019-03-15T17:17:48.706Z,7.79
2019-03-15T17:20:17.923Z,7.78
2019-03-15T17:22:47.040Z,7.73
2019-03-15T17:25:16.040Z,7.71
2019-03-15T17:27:45.094Z,7.74
2019-03-15T17:30:14.226Z,7.69
2019-03-15T17:32:43.251Z,7.68
2019-03-15T17:35:12.510Z,7.62
2019-03-15T17:37:41.617Z,7.58
2019-03-15T17:40:11.679Z,7.62
2019-03-15T17:42:40.676Z,7.62
2019-03-15T17:45:10.547Z,7.54
2019-03-15T17:47:39.611Z,7.57
2019-03-15T17:50:11.644Z,7.52
2019-03-15T17:52:40.655Z,7.54
2019-03-15T17:55:09.736Z,7.53
2019-03-15T17:57:38.804Z,7.41
2019-03-15T18:00:45.164Z,7.11
2019-03-15T18:03:21.514Z,6.29
2019-03-15T18:05:45.683Z,6.27
2019-03-15T18:08:14.696Z,6.24
2019-03-15T18:10:43.754Z,6.09
2019-03-15T18:13:12.857Z,6.05
2019-03-15T18:15:43.655Z,6.03
2019-03-15T18:18:12.674Z,6.02
2019-03-15T18:20:41.733Z,6.02
2019-03-15T18:23:11.053Z,6.01
2019-03-15T18:25:40.056Z,6.01
2019-03-15T18:28:09.425Z,6.07
2019-03-15T18:30:38.760Z,6.11
2019-03-15T18:33:07.766Z,6.13
2019-03-15T18:35:36.804Z,6.13
2019-03-15T18:38:05.888Z,6.15
2019-03-15T18:40:34.906Z,6.15
2019-03-15T18:43:03.924Z,6.16
2019-03-15T18:45:32.996Z,6.19
2019-03-15T18:48:02.000Z,6.29
2019-03-15T18:50:31.010Z,6.31
2019-03-15T18:53:00.352Z,6.24
2019-03-15T18:55:29.361Z,6.23
2019-03-15T18:57:58.408Z,6.16
2019-03-15T19:00:27.417Z,6.12
2019-03-15T19:02:59.716Z,6.07
2019-03-15T19:05:27.253Z,6.02
2019-03-15T19:07:56.267Z,5.97
2019-03-15T19:10:25.337Z,6.03
2019-03-15T19:12:54.735Z,6.00
2019-03-15T19:15:23.840Z,6.06
2019-03-15T19:17:52.882Z,6.07
2019-03-15T19:20:21.945Z,6.04
2019-03-15T19:22:50.962Z,6.10
2019-03-15T19:25:20.021Z,6.11
2019-03-15T19:27:49.131Z,6.08
2019-03-15T19:30:18.198Z,6.16
2019-03-15T19:32:47.268Z,6.17
2019-03-15T19:35:16.478Z,6.25
2019-03-15T19:37:45.481Z,6.27
2019-03-15T19:40:14.577Z,6.33
2019-03-15T19:42:45.508Z,6.35
2019-03-15T19:45:14.765Z,6.41
2019-03-15T19:47:43.771Z,6.52
2019-03-15T19:50:13.988Z,6.55
2019-03-15T19:52:43.243Z,6.57
2019-03-15T19:55:12.904Z,6.55
2019-03-15T19:57:41.926Z,6.44
2019-03-15T20:00:13.143Z,6.44
2019-03-15T20:02:42.298Z,6.40
2019-03-15T20:05:11.325Z,6.35
2019-03-15T20:07:40.476Z,6.25
2019-03-15T20:10:10.985Z,6.21
2019-03-15T20:12:40.072Z,6.20
2019-03-15T20:15:09.700Z,6.23
2019-03-15T20:17:38.716Z,6.19
2019-03-15T20:20:08.773Z,6.19
2019-03-15T20:22:37.928Z,6.16
2019-03-15T20:25:08.461Z,6.16
2019-03-15T20:27:37.513Z,6.10
2019-03-15T20:30:20.156Z,6.09
2019-03-15T20:32:38.156Z,6.05
2019-03-15T20:35:07.309Z,6.07
2019-03-15T20:37:36.319Z,6.04
2019-03-15T20:40:05.841Z,6.06
2019-03-15T20:42:34.803Z,6.03
2019-03-15T20:45:04.035Z,6.05
2019-03-15T20:47:36.076Z,6.04
2019-03-15T20:50:03.844Z,6.07
2019-03-15T20:52:32.952Z,6.08
2019-03-15T20:55:01.946Z,6.04
2019-03-15T20:57:30.966Z,6.05
2019-03-15T21:00:00.000Z,6.11
2019-03-15T21:02:29.063Z,6.27
2019-03-15T21:04:58.087Z,6.30
2019-03-15T21:07:27.232Z,6.20
2019-03-15T21:09:56.236Z,6.20
2019-03-15T21:12:26.270Z,6.12
2019-03-15T21:14:55.334Z,6.14
2019-03-15T21:17:24.289Z,6.12
2019-03-15T21:19:53.300Z,6.07
2019-03-15T21:22:22.363Z,6.10
2019-03-15T21:24:51.298Z,6.13
2019-03-15T21:27:20.345Z,6.19
2019-03-15T21:29:49.640Z,6.20
2019-03-15T21:32:18.838Z,6.19
2019-03-15T21:34:47.877Z,6.13
2019-03-15T21:37:16.933Z,6.14
2019-03-15T21:39:45.959Z,6.10
2019-03-15T21:42:15.031Z,6.02
2019-03-15T21:44:44.076Z,6.01
2019-03-15T21:47:13.149Z,5.98
2019-03-15T21:49:42.190Z,5.98
2019-03-15T21:52:12.581Z,6.01
2019-03-15T21:54:43.106Z,6.03
2019-03-15T21:57:12.120Z,6.15
2019-03-15T21:59:41.048Z,6.21
2019-03-15T22:02:10.111Z,6.29
2019-03-15T22:04:39.428Z,6.19
2019-03-15T22:07:08.500Z,5.23
2019-03-15T22:09:37.449Z,4.92
2019-03-15T22:12:06.480Z,4.95
2019-03-15T22:14:35.503Z,4.91
2019-03-15T22:17:04.560Z,4.93
2019-03-15T22:19:33.604Z,4.94
2019-03-15T22:22:02.660Z,4.97
2019-03-15T22:24:31.689Z,5.05
2019-03-15T22:27:01.049Z,5.11
2019-03-15T22:29:30.180Z,5.10
2019-03-15T22:31:59.205Z,5.10
2019-03-15T22:34:28.551Z,5.15
2019-03-15T22:36:57.607Z,5.29
2019-03-15T22:39:26.664Z,5.33
2019-03-15T22:41:55.675Z,5.36
2019-03-15T22:44:24.722Z,5.48
2019-03-15T22:46:53.734Z,5.59
2019-03-15T22:49:22.786Z,5.81
2019-03-15T22:51:51.833Z,5.94
2019-03-15T22:54:20.843Z,6.02
2019-03-15T22:56:49.906Z,6.12
2019-03-15T22:59:18.946Z,6.16
2019-03-15T23:01:48.084Z,6.19
2019-03-15T23:04:17.145Z,6.19
2019-03-15T23:06:46.149Z,6.19
2019-03-15T23:09:15.203Z,6.26
2019-03-15T23:11:44.298Z,6.26
2019-03-15T23:14:13.696Z,6.24
2019-03-15T23:16:42.882Z,6.22
2019-03-15T23:19:11.889Z,6.14
2019-03-15T23:21:40.821Z,6.08
2019-03-15T23:24:09.873Z,6.02
2019-03-15T23:26:38.989Z,6.01
2019-03-15T23:29:08.039Z,5.98
2019-03-15T23:31:43.677Z,5.93
2019-03-15T23:34:07.833Z,5.94
2019-03-15T23:36:36.909Z,5.97
2019-03-15T23:39:07.182Z,5.97
2019-03-15T23:41:36.240Z,5.97
2019-03-15T23:44:05.354Z,5.96
2019-03-15T23:46:34.409Z,6.03
2019-03-15T23:49:03.451Z,6.08
2019-03-15T23:51:32.579Z,6.16
2019-03-15T23:54:01.620Z,6.17
2019-03-15T23:56:30.929Z,6.23
2019-03-15T23:58:59.980Z,6.18
